sensor_id;sensor_type;location;lat;lon;timestamp;P1;durP1;ratioP1;P2;durP2;ratioP2
25045;SDS011;13044;49.304;12.840;2023-04-06T00:00:25;12.13;;;6.22;;
25045;SDS011;13044;49.304;12.840;2023-04-06T00:02:52;10.27;;;6.07;;
25045;SDS011;13044;49.304;12.840;2023-04-06T00:05:19;13.43;;;6.85;;
25045;SDS011;13044;49.304;12.840;2023-04-06T00:07:47;8.57;;;5.97;;
25045;SDS011;13044;49.304;12.840;2023-04-06T00:10:15;11.80;;;6.68;;
25045;SDS011;13044;49.304;12.840;2023-04-06T00:12:43;11.30;;;6.15;;
25045;SDS011;13044;49.304;12.840;2023-04-06T00:15:10;12.68;;;6.97;;
25045;SDS011;13044;49.304;12.840;2023-04-06T00:17:37;10.93;;;5.65;;
25045;SDS011;13044;49.304;12.840;2023-04-06T00:20:04;9.55;;;5.68;;
25045;SDS011;13044;49.304;12.840;2023-04-06T00:22:33;12.40;;;6.15;;
25045;SDS011;13044;49.304;12.840;2023-04-06T00:25:00;11.70;;;6.97;;
25045;SDS011;13044;49.304;12.840;2023-04-06T00:27:27;10.45;;;6.60;;
25045;SDS011;13044;49.304;12.840;2023-04-06T00:29:54;11.48;;;6.00;;
25045;SDS011;13044;49.304;12.840;2023-04-06T00:32:22;10.70;;;6.78;;
25045;SDS011;13044;49.304;12.840;2023-04-06T00:34:49;12.23;;;6.07;;
25045;SDS011;13044;49.304;12.840;2023-04-06T00:37:18;12.73;;;6.43;;
25045;SDS011;13044;49.304;12.840;2023-04-06T00:39:45;10.65;;;6.15;;
25045;SDS011;13044;49.304;12.840;2023-04-06T00:42:12;9.30;;;5.75;;
25045;SDS011;13044;49.304;12.840;2023-04-06T00:44:40;11.70;;;6.43;;
25045;SDS011;13044;49.304;12.840;2023-04-06T00:47:08;9.60;;;6.53;;
25045;SDS011;13044;49.304;12.840;2023-04-06T00:49:35;9.77;;;6.80;;
25045;SDS011;13044;49.304;12.840;2023-04-06T00:52:02;18.83;;;7.15;;
25045;SDS011;13044;49.304;12.840;2023-04-06T00:54:30;9.77;;;6.55;;
25045;SDS011;13044;49.304;12.840;2023-04-06T00:56:57;9.02;;;6.22;;
25045;SDS011;13044;49.304;12.840;2023-04-06T00:59:24;11.68;;;6.07;;
25045;SDS011;13044;49.304;12.840;2023-04-06T01:01:51;13.25;;;6.53;;
25045;SDS011;13044;49.304;12.840;2023-04-06T01:04:18;10.82;;;6.50;;
25045;SDS011;13044;49.304;12.840;2023-04-06T01:06:45;9.82;;;6.32;;
25045;SDS011;13044;49.304;12.840;2023-04-06T01:09:12;12.27;;;6.13;;
25045;SDS011;13044;49.304;12.840;2023-04-06T01:11:40;10.15;;;6.25;;
25045;SDS011;13044;49.304;12.840;2023-04-06T01:14:13;11.30;;;6.53;;
25045;SDS011;13044;49.304;12.840;2023-04-06T01:16:40;10.07;;;6.60;;
25045;SDS011;13044;49.304;12.840;2023-04-06T01:19:08;10.65;;;6.82;;
25045;SDS011;13044;49.304;12.840;2023-04-06T01:21:39;11.32;;;7.00;;
25045;SDS011;13044;49.304;12.840;2023-04-06T01:24:08;18.35;;;7.30;;
25045;SDS011;13044;49.304;12.840;2023-04-06T01:26:36;14.88;;;7.30;;
25045;SDS011;13044;49.304;12.840;2023-04-06T01:29:05;11.10;;;6.90;;
25045;SDS011;13044;49.304;12.840;2023-04-06T01:31:38;12.20;;;7.15;;
25045;SDS011;13044;49.304;12.840;2023-04-06T01:34:11;11.20;;;6.47;;
25045;SDS011;13044;49.304;12.840;2023-04-06T01:36:38;10.40;;;6.28;;
25045;SDS011;13044;49.304;12.840;2023-04-06T01:39:05;14.40;;;7.57;;
25045;SDS011;13044;49.304;12.840;2023-04-06T01:41:32;13.88;;;5.80;;
25045;SDS011;13044;49.304;12.840;2023-04-06T01:43:59;9.90;;;6.38;;
25045;SDS011;13044;49.304;12.840;2023-04-06T01:46:27;9.43;;;5.78;;
25045;SDS011;13044;49.304;12.840;2023-04-06T01:48:55;9.02;;;5.70;;
25045;SDS011;13044;49.304;12.840;2023-04-06T01:51:27;13.70;;;6.45;;
25045;SDS011;13044;49.304;12.840;2023-04-06T01:54:00;10.80;;;6.57;;
25045;SDS011;13044;49.304;12.840;2023-04-06T01:56:27;10.27;;;6.30;;
25045;SDS011;13044;49.304;12.840;2023-04-06T01:58:54;14.00;;;5.85;;
25045;SDS011;13044;49.304;12.840;2023-04-06T02:01:21;10.30;;;6.15;;
25045;SDS011;13044;49.304;12.840;2023-04-06T02:03:49;8.70;;;5.47;;
25045;SDS011;13044;49.304;12.840;2023-04-06T02:06:16;10.02;;;5.70;;
25045;SDS011;13044;49.304;12.840;2023-04-06T02:08:43;15.55;;;6.70;;
25045;SDS011;13044;49.304;12.840;2023-04-06T02:11:14;10.25;;;5.70;;
25045;SDS011;13044;49.304;12.840;2023-04-06T02:13:47;12.07;;;6.80;;
25045;SDS011;13044;49.304;12.840;2023-04-06T02:16:13;12.57;;;7.63;;
25045;SDS011;13044;49.304;12.840;2023-04-06T02:18:42;14.80;;;8.05;;
25045;SDS011;13044;49.304;12.840;2023-04-06T02:21:08;12.75;;;7.05;;
25045;SDS011;13044;49.304;12.840;2023-04-06T02:23:35;10.70;;;6.57;;
25045;SDS011;13044;49.304;12.840;2023-04-06T02:26:02;16.52;;;7.10;;
25045;SDS011;13044;49.304;12.840;2023-04-06T02:28:29;10.00;;;6.30;;
25045;SDS011;13044;49.304;12.840;2023-04-06T02:31:00;12.40;;;6.63;;
25045;SDS011;13044;49.304;12.840;2023-04-06T02:33:27;11.65;;;6.30;;
25045;SDS011;13044;49.304;12.840;2023-04-06T02:35:54;9.63;;;6.07;;
25045;SDS011;13044;49.304;12.840;2023-04-06T02:38:21;9.43;;;6.32;;
25045;SDS011;13044;49.304;12.840;2023-04-06T02:40:48;12.18;;;6.32;;
25045;SDS011;13044;49.304;12.840;2023-04-06T02:43:15;11.85;;;6.72;;
25045;SDS011;13044;49.304;12.840;2023-04-06T02:45:43;10.48;;;6.15;;
25045;SDS011;13044;49.304;12.840;2023-04-06T02:48:10;10.82;;;5.93;;
25045;SDS011;13044;49.304;12.840;2023-04-06T02:50:43;10.43;;;5.57;;
25045;SDS011;13044;49.304;12.840;2023-04-06T02:53:16;10.65;;;6.25;;
25045;SDS011;13044;49.304;12.840;2023-04-06T02:55:43;11.68;;;5.72;;
25045;SDS011;13044;49.304;12.840;2023-04-06T02:58:10;10.02;;;5.88;;
25045;SDS011;13044;49.304;12.840;2023-04-06T03:00:37;11.35;;;6.20;;
25045;SDS011;13044;49.304;12.840;2023-04-06T03:03:04;9.75;;;6.07;;
25045;SDS011;13044;49.304;12.840;2023-04-06T03:05:31;9.15;;;6.07;;
25045;SDS011;13044;49.304;12.840;2023-04-06T03:07:58;9.38;;;6.07;;
25045;SDS011;13044;49.304;12.840;2023-04-06T03:10:29;9.05;;;5.80;;
25045;SDS011;13044;49.304;12.840;2023-04-06T03:13:02;11.02;;;6.65;;
25045;SDS011;13044;49.304;12.840;2023-04-06T03:18:01;10.88;;;6.47;;
25045;SDS011;13044;49.304;12.840;2023-04-06T03:20:28;10.27;;;6.15;;
25045;SDS011;13044;49.304;12.840;2023-04-06T03:22:55;9.85;;;5.90;;
25045;SDS011;13044;49.304;12.840;2023-04-06T03:25:22;9.60;;;6.13;;
25045;SDS011;13044;49.304;12.840;2023-04-06T03:27:49;10.32;;;6.78;;
25045;SDS011;13044;49.304;12.840;2023-04-06T03:30:17;8.93;;;6.20;;
25045;SDS011;13044;49.304;12.840;2023-04-06T03:32:50;9.18;;;6.00;;
25045;SDS011;13044;49.304;12.840;2023-04-06T03:35:23;12.18;;;6.93;;
25045;SDS011;13044;49.304;12.840;2023-04-06T03:37:50;14.27;;;6.57;;
25045;SDS011;13044;49.304;12.840;2023-04-06T03:40:17;15.05;;;8.10;;
25045;SDS011;13044;49.304;12.840;2023-04-06T03:42:44;26.45;;;11.00;;
25045;SDS011;13044;49.304;12.840;2023-04-06T03:45:11;29.63;;;11.98;;
25045;SDS011;13044;49.304;12.840;2023-04-06T03:47:40;25.05;;;10.60;;
25045;SDS011;13044;49.304;12.840;2023-04-06T03:50:07;19.83;;;9.05;;
25045;SDS011;13044;49.304;12.840;2023-04-06T03:52:41;16.65;;;7.50;;
25045;SDS011;13044;49.304;12.840;2023-04-06T03:55:13;16.92;;;7.68;;
25045;SDS011;13044;49.304;12.840;2023-04-06T03:57:40;12.50;;;6.82;;
25045;SDS011;13044;49.304;12.840;2023-04-06T04:00:07;15.13;;;7.40;;
25045;SDS011;13044;49.304;12.840;2023-04-06T04:02:35;15.45;;;7.32;;
25045;SDS011;13044;49.304;12.840;2023-04-06T04:05:02;16.15;;;7.80;;
25045;SDS011;13044;49.304;12.840;2023-04-06T04:07:29;14.90;;;7.03;;
25045;SDS011;13044;49.304;12.840;2023-04-06T04:09:57;13.20;;;7.40;;
25045;SDS011;13044;49.304;12.840;2023-04-06T04:12:30;13.65;;;7.55;;
25045;SDS011;13044;49.304;12.840;2023-04-06T04:15:03;17.77;;;8.43;;
25045;SDS011;13044;49.304;12.840;2023-04-06T04:17:31;12.25;;;7.28;;
25045;SDS011;13044;49.304;12.840;2023-04-06T04:19:58;15.25;;;8.00;;
25045;SDS011;13044;49.304;12.840;2023-04-06T04:22:24;16.15;;;7.32;;
25045;SDS011;13044;49.304;12.840;2023-04-06T04:24:53;12.57;;;7.05;;
25045;SDS011;13044;49.304;12.840;2023-04-06T04:27:20;13.63;;;6.72;;
25045;SDS011;13044;49.304;12.840;2023-04-06T04:29:48;14.70;;;7.55;;
25045;SDS011;13044;49.304;12.840;2023-04-06T04:32:21;15.15;;;7.65;;
25045;SDS011;13044;49.304;12.840;2023-04-06T04:34:59;33.60;;;15.63;;
25045;SDS011;13044;49.304;12.840;2023-04-06T04:37:26;25.58;;;12.38;;
25045;SDS011;13044;49.304;12.840;2023-04-06T04:39:53;16.20;;;8.70;;
25045;SDS011;13044;49.304;12.840;2023-04-06T04:42:20;13.63;;;8.05;;
25045;SDS011;13044;49.304;12.840;2023-04-06T04:44:46;10.63;;;6.65;;
25045;SDS011;13044;49.304;12.840;2023-04-06T04:47:13;14.98;;;7.78;;
25045;SDS011;13044;49.304;12.840;2023-04-06T04:49:41;15.85;;;7.07;;
25045;SDS011;13044;49.304;12.840;2023-04-06T04:52:14;13.88;;;8.25;;
25045;SDS011;13044;49.304;12.840;2023-04-06T04:54:49;13.45;;;7.28;;
25045;SDS011;13044;49.304;12.840;2023-04-06T04:57:22;14.35;;;6.95;;
25045;SDS011;13044;49.304;12.840;2023-04-06T04:59:49;17.42;;;8.05;;
25045;SDS011;13044;49.304;12.840;2023-04-06T05:02:17;14.40;;;7.05;;
25045;SDS011;13044;49.304;12.840;2023-04-06T05:04:44;11.23;;;7.30;;
25045;SDS011;13044;49.304;12.840;2023-04-06T05:07:11;13.10;;;7.32;;
25045;SDS011;13044;49.304;12.840;2023-04-06T05:09:38;16.35;;;8.40;;
25045;SDS011;13044;49.304;12.840;2023-04-06T05:12:12;14.45;;;8.38;;
25045;SDS011;13044;49.304;12.840;2023-04-06T05:14:46;15.50;;;7.97;;
25045;SDS011;13044;49.304;12.840;2023-04-06T05:17:18;12.88;;;7.80;;
25045;SDS011;13044;49.304;12.840;2023-04-06T05:19:45;11.02;;;6.65;;
25045;SDS011;13044;49.304;12.840;2023-04-06T05:22:12;11.40;;;7.47;;
25045;SDS011;13044;49.304;12.840;2023-04-06T05:24:42;12.52;;;7.13;;
25045;SDS011;13044;49.304;12.840;2023-04-06T05:27:09;13.75;;;6.95;;
25045;SDS011;13044;49.304;12.840;2023-04-06T05:29:37;13.63;;;6.75;;
25045;SDS011;13044;49.304;12.840;2023-04-06T05:32:15;22.20;;;7.78;;
25045;SDS011;13044;49.304;12.840;2023-04-06T05:34:52;21.00;;;7.93;;
25045;SDS011;13044;49.304;12.840;2023-04-06T05:37:26;12.60;;;7.30;;
25045;SDS011;13044;49.304;12.840;2023-04-06T05:39:53;14.55;;;7.07;;
25045;SDS011;13044;49.304;12.840;2023-04-06T05:42:21;15.82;;;6.82;;
25045;SDS011;13044;49.304;12.840;2023-04-06T05:44:49;13.10;;;6.60;;
25045;SDS011;13044;49.304;12.840;2023-04-06T05:47:16;10.32;;;7.18;;
25045;SDS011;13044;49.304;12.840;2023-04-06T05:49:43;13.52;;;7.50;;
25045;SDS011;13044;49.304;12.840;2023-04-06T05:52:14;11.32;;;6.43;;
25045;SDS011;13044;49.304;12.840;2023-04-06T05:57:14;17.10;;;7.72;;
25045;SDS011;13044;49.304;12.840;2023-04-06T05:59:42;10.13;;;7.22;;
25045;SDS011;13044;49.304;12.840;2023-04-06T06:02:09;15.13;;;7.63;;
25045;SDS011;13044;49.304;12.840;2023-04-06T06:04:37;13.43;;;6.90;;
25045;SDS011;13044;49.304;12.840;2023-04-06T06:07:03;13.70;;;7.40;;
25045;SDS011;13044;49.304;12.840;2023-04-06T06:09:31;23.55;;;8.02;;
25045;SDS011;13044;49.304;12.840;2023-04-06T06:12:04;13.77;;;7.72;;
25045;SDS011;13044;49.304;12.840;2023-04-06T06:14:40;11.52;;;7.18;;
25045;SDS011;13044;49.304;12.840;2023-04-06T06:17:07;13.35;;;7.47;;
25045;SDS011;13044;49.304;12.840;2023-04-06T06:19:34;16.63;;;7.57;;
25045;SDS011;13044;49.304;12.840;2023-04-06T06:22:01;14.50;;;7.03;;
25045;SDS011;13044;49.304;12.840;2023-04-06T06:24:29;16.58;;;7.82;;
25045;SDS011;13044;49.304;12.840;2023-04-06T06:26:57;11.77;;;7.68;;
25045;SDS011;13044;49.304;12.840;2023-04-06T06:29:25;15.15;;;8.13;;
25045;SDS011;13044;49.304;12.840;2023-04-06T06:32:09;13.65;;;7.57;;
25045;SDS011;13044;49.304;12.840;2023-04-06T06:34:36;11.98;;;7.88;;
25045;SDS011;13044;49.304;12.840;2023-04-06T06:37:03;15.88;;;8.45;;
25045;SDS011;13044;49.304;12.840;2023-04-06T06:39:31;12.95;;;7.47;;
25045;SDS011;13044;49.304;12.840;2023-04-06T06:41:58;11.75;;;7.55;;
25045;SDS011;13044;49.304;12.840;2023-04-06T06:44:27;11.88;;;7.43;;
25045;SDS011;13044;49.304;12.840;2023-04-06T06:46:54;12.82;;;6.60;;
25045;SDS011;13044;49.304;12.840;2023-04-06T06:49:22;12.68;;;6.63;;
25045;SDS011;13044;49.304;12.840;2023-04-06T06:51:56;16.05;;;7.35;;
25045;SDS011;13044;49.304;12.840;2023-04-06T06:54:30;10.48;;;6.50;;
25045;SDS011;13044;49.304;12.840;2023-04-06T06:56:58;13.40;;;6.85;;
25045;SDS011;13044;49.304;12.840;2023-04-06T06:59:26;12.52;;;6.22;;
25045;SDS011;13044;49.304;12.840;2023-04-06T07:01:53;11.88;;;6.38;;
25045;SDS011;13044;49.304;12.840;2023-04-06T07:04:20;11.68;;;6.85;;
25045;SDS011;13044;49.304;12.840;2023-04-06T07:06:47;8.93;;;6.13;;
25045;SDS011;13044;49.304;12.840;2023-04-06T07:09:14;11.50;;;6.72;;
25045;SDS011;13044;49.304;12.840;2023-04-06T07:11:47;10.43;;;6.00;;
25045;SDS011;13044;49.304;12.840;2023-04-06T07:14:20;13.80;;;6.15;;
25045;SDS011;13044;49.304;12.840;2023-04-06T07:16:54;11.80;;;6.90;;
25045;SDS011;13044;49.304;12.840;2023-04-06T07:19:21;12.05;;;6.03;;
25045;SDS011;13044;49.304;12.840;2023-04-06T07:21:48;10.80;;;5.97;;
25045;SDS011;13044;49.304;12.840;2023-04-06T07:24:17;13.20;;;6.45;;
25045;SDS011;13044;49.304;12.840;2023-04-06T07:26:44;13.93;;;6.50;;
25045;SDS011;13044;49.304;12.840;2023-04-06T07:29:12;15.68;;;7.85;;
25045;SDS011;13044;49.304;12.840;2023-04-06T07:31:50;13.63;;;6.82;;
25045;SDS011;13044;49.304;12.840;2023-04-06T07:34:24;13.18;;;6.78;;
25045;SDS011;13044;49.304;12.840;2023-04-06T07:36:58;13.70;;;6.55;;
25045;SDS011;13044;49.304;12.840;2023-04-06T07:39:29;18.42;;;8.32;;
25045;SDS011;13044;49.304;12.840;2023-04-06T07:41:57;18.88;;;7.20;;
25045;SDS011;13044;49.304;12.840;2023-04-06T07:44:24;14.38;;;6.00;;
25045;SDS011;13044;49.304;12.840;2023-04-06T07:46:51;8.93;;;5.55;;
25045;SDS011;13044;49.304;12.840;2023-04-06T07:49:18;10.93;;;5.95;;
25045;SDS011;13044;49.304;12.840;2023-04-06T07:51:53;9.90;;;5.75;;
25045;SDS011;13044;49.304;12.840;2023-04-06T07:54:28;12.73;;;5.38;;
25045;SDS011;13044;49.304;12.840;2023-04-06T07:57:02;9.88;;;5.30;;
25045;SDS011;13044;49.304;12.840;2023-04-06T07:59:29;9.07;;;4.75;;
25045;SDS011;13044;49.304;12.840;2023-04-06T08:01:56;12.90;;;5.28;;
25045;SDS011;13044;49.304;12.840;2023-04-06T08:04:22;10.57;;;4.60;;
25045;SDS011;13044;49.304;12.840;2023-04-06T08:06:49;11.02;;;5.28;;
25045;SDS011;13044;49.304;12.840;2023-04-06T08:09:17;7.85;;;4.60;;
25045;SDS011;13044;49.304;12.840;2023-04-06T08:11:50;7.28;;;4.90;;
25045;SDS011;13044;49.304;12.840;2023-04-06T08:14:22;7.35;;;4.50;;
25045;SDS011;13044;49.304;12.840;2023-04-06T08:16:54;9.55;;;4.50;;
25045;SDS011;13044;49.304;12.840;2023-04-06T08:19:21;11.65;;;5.43;;
25045;SDS011;13044;49.304;12.840;2023-04-06T08:21:48;8.73;;;5.07;;
25045;SDS011;13044;49.304;12.840;2023-04-06T08:24:15;10.23;;;5.22;;
25045;SDS011;13044;49.304;12.840;2023-04-06T08:26:42;9.70;;;5.25;;
25045;SDS011;13044;49.304;12.840;2023-04-06T08:29:09;6.93;;;4.80;;
25045;SDS011;13044;49.304;12.840;2023-04-06T08:31:44;7.75;;;5.03;;
25045;SDS011;13044;49.304;12.840;2023-04-06T08:34:22;9.25;;;4.70;;
25045;SDS011;13044;49.304;12.840;2023-04-06T08:37:00;6.90;;;4.80;;
25045;SDS011;13044;49.304;12.840;2023-04-06T08:39:36;6.50;;;4.45;;
25045;SDS011;13044;49.304;12.840;2023-04-06T08:42:03;7.35;;;4.30;;
25045;SDS011;13044;49.304;12.840;2023-04-06T08:44:31;7.53;;;4.57;;
25045;SDS011;13044;49.304;12.840;2023-04-06T08:46:58;6.75;;;4.53;;
25045;SDS011;13044;49.304;12.840;2023-04-06T08:49:27;6.72;;;4.38;;
25045;SDS011;13044;49.304;12.840;2023-04-06T08:52:06;9.07;;;4.82;;
25045;SDS011;13044;49.304;12.840;2023-04-06T08:54:57;8.38;;;4.32;;
25045;SDS011;13044;49.304;12.840;2023-04-06T08:57:36;6.50;;;4.10;;
25045;SDS011;13044;49.304;12.840;2023-04-06T09:00:17;6.53;;;4.30;;
25045;SDS011;13044;49.304;12.840;2023-04-06T09:02:57;7.68;;;4.47;;
25045;SDS011;13044;49.304;12.840;2023-04-06T09:05:25;7.57;;;4.50;;
25045;SDS011;13044;49.304;12.840;2023-04-06T09:07:52;7.05;;;4.22;;
25045;SDS011;13044;49.304;12.840;2023-04-06T09:10:20;6.28;;;4.30;;
25045;SDS011;13044;49.304;12.840;2023-04-06T09:13:04;5.13;;;3.90;;
25045;SDS011;13044;49.304;12.840;2023-04-06T09:15:41;6.57;;;4.28;;
25045;SDS011;13044;49.304;12.840;2023-04-06T09:18:27;6.97;;;3.95;;
25045;SDS011;13044;49.304;12.840;2023-04-06T09:21:00;5.72;;;3.38;;
25045;SDS011;13044;49.304;12.840;2023-04-06T09:23:32;5.55;;;4.15;;
25045;SDS011;13044;49.304;12.840;2023-04-06T09:26:12;6.50;;;4.10;;
25045;SDS011;13044;49.304;12.840;2023-04-06T09:28:46;6.60;;;4.20;;
25045;SDS011;13044;49.304;12.840;2023-04-06T09:31:27;8.20;;;4.72;;
25045;SDS011;13044;49.304;12.840;2023-04-06T09:34:04;7.15;;;4.30;;
25045;SDS011;13044;49.304;12.840;2023-04-06T09:36:33;6.68;;;3.83;;
25045;SDS011;13044;49.304;12.840;2023-04-06T09:39:04;7.60;;;4.90;;
25045;SDS011;13044;49.304;12.840;2023-04-06T09:41:32;6.22;;;4.32;;
25045;SDS011;13044;49.304;12.840;2023-04-06T09:44:04;5.75;;;4.20;;
25045;SDS011;13044;49.304;12.840;2023-04-06T09:46:40;7.18;;;4.80;;
25045;SDS011;13044;49.304;12.840;2023-04-06T09:49:29;7.45;;;4.75;;
25045;SDS011;13044;49.304;12.840;2023-04-06T09:52:06;7.70;;;4.50;;
25045;SDS011;13044;49.304;12.840;2023-04-06T09:54:36;8.32;;;4.70;;
25045;SDS011;13044;49.304;12.840;2023-04-06T09:57:08;6.05;;;4.00;;
25045;SDS011;13044;49.304;12.840;2023-04-06T09:59:56;7.65;;;3.97;;
25045;SDS011;13044;49.304;12.840;2023-04-06T10:08:06;6.65;;;4.47;;
25045;SDS011;13044;49.304;12.840;2023-04-06T10:10:45;7.00;;;4.72;;
25045;SDS011;13044;49.304;12.840;2023-04-06T10:13:13;7.38;;;4.43;;
25045;SDS011;13044;49.304;12.840;2023-04-06T10:15:40;5.60;;;4.25;;
25045;SDS011;13044;49.304;12.840;2023-04-06T10:18:08;7.97;;;4.65;;
25045;SDS011;13044;49.304;12.840;2023-04-06T10:20:38;7.53;;;4.90;;
25045;SDS011;13044;49.304;12.840;2023-04-06T10:23:08;6.93;;;5.13;;
25045;SDS011;13044;49.304;12.840;2023-04-06T10:26:12;6.30;;;4.43;;
25045;SDS011;13044;49.304;12.840;2023-04-06T10:28:47;8.82;;;4.60;;
25045;SDS011;13044;49.304;12.840;2023-04-06T10:31:23;6.18;;;4.30;;
25045;SDS011;13044;49.304;12.840;2023-04-06T10:33:55;9.07;;;4.65;;
25045;SDS011;13044;49.304;12.840;2023-04-06T10:36:24;14.82;;;5.07;;
25045;SDS011;13044;49.304;12.840;2023-04-06T10:38:58;6.45;;;4.53;;
25045;SDS011;13044;49.304;12.840;2023-04-06T10:41:40;6.53;;;4.65;;
25045;SDS011;13044;49.304;12.840;2023-04-06T10:44:20;6.95;;;4.57;;
25045;SDS011;13044;49.304;12.840;2023-04-06T10:46:52;5.97;;;4.85;;
25045;SDS011;13044;49.304;12.840;2023-04-06T10:49:22;6.05;;;4.10;;
25045;SDS011;13044;49.304;12.840;2023-04-06T10:51:56;6.30;;;4.50;;
25045;SDS011;13044;49.304;12.840;2023-04-06T10:54:24;5.50;;;4.05;;
25045;SDS011;13044;49.304;12.840;2023-04-06T10:56:53;7.13;;;4.85;;
25045;SDS011;13044;49.304;12.840;2023-04-06T10:59:21;6.85;;;4.88;;
25045;SDS011;13044;49.304;12.840;2023-04-06T11:01:49;4.85;;;4.35;;
25045;SDS011;13044;49.304;12.840;2023-04-06T11:04:17;6.43;;;4.50;;
25045;SDS011;13044;49.304;12.840;2023-04-06T11:06:47;4.68;;;4.05;;
25045;SDS011;13044;49.304;12.840;2023-04-06T11:09:27;8.23;;;4.43;;
25045;SDS011;13044;49.304;12.840;2023-04-06T11:11:55;6.35;;;4.45;;
25045;SDS011;13044;49.304;12.840;2023-04-06T11:14:23;5.80;;;4.85;;
25045;SDS011;13044;49.304;12.840;2023-04-06T11:16:50;6.15;;;4.65;;
25045;SDS011;13044;49.304;12.840;2023-04-06T11:19:17;6.32;;;4.47;;
25045;SDS011;13044;49.304;12.840;2023-04-06T11:21:48;7.50;;;4.80;;
25045;SDS011;13044;49.304;12.840;2023-04-06T11:26:44;5.97;;;4.40;;
25045;SDS011;13044;49.304;12.840;2023-04-06T11:29:18;5.55;;;4.72;;
25045;SDS011;13044;49.304;12.840;2023-04-06T11:32:08;9.05;;;4.97;;
25045;SDS011;13044;49.304;12.840;2023-04-06T11:34:36;6.78;;;4.60;;
25045;SDS011;13044;49.304;12.840;2023-04-06T11:40:00;6.57;;;4.70;;
25045;SDS011;13044;49.304;12.840;2023-04-06T11:42:27;6.88;;;4.70;;
25045;SDS011;13044;49.304;12.840;2023-04-06T11:44:56;5.68;;;4.22;;
25045;SDS011;13044;49.304;12.840;2023-04-06T11:47:31;4.75;;;3.95;;
25045;SDS011;13044;49.304;12.840;2023-04-06T11:50:13;5.63;;;4.38;;
25045;SDS011;13044;49.304;12.840;2023-04-06T11:52:41;10.10;;;4.55;;
25045;SDS011;13044;49.304;12.840;2023-04-06T11:57:44;8.52;;;4.63;;
25045;SDS011;13044;49.304;12.840;2023-04-06T12:00:11;6.07;;;3.83;;
25045;SDS011;13044;49.304;12.840;2023-04-06T12:02:39;6.75;;;4.07;;
25045;SDS011;13044;49.304;12.840;2023-04-06T12:05:06;6.72;;;4.78;;
25045;SDS011;13044;49.304;12.840;2023-04-06T12:07:34;6.10;;;3.83;;
25045;SDS011;13044;49.304;12.840;2023-04-06T12:10:03;6.90;;;4.13;;
25045;SDS011;13044;49.304;12.840;2023-04-06T12:12:31;5.78;;;4.10;;
25045;SDS011;13044;49.304;12.840;2023-04-06T12:14:58;5.97;;;4.40;;
25045;SDS011;13044;49.304;12.840;2023-04-06T12:17:25;6.75;;;4.63;;
25045;SDS011;13044;49.304;12.840;2023-04-06T12:19:52;10.57;;;4.85;;
25045;SDS011;13044;49.304;12.840;2023-04-06T12:22:24;4.80;;;3.72;;
25045;SDS011;13044;49.304;12.840;2023-04-06T12:24:51;6.70;;;4.35;;
25045;SDS011;13044;49.304;12.840;2023-04-06T12:27:20;6.43;;;4.40;;
25045;SDS011;13044;49.304;12.840;2023-04-06T12:29:48;6.70;;;4.43;;
25045;SDS011;13044;49.304;12.840;2023-04-06T12:32:16;5.80;;;4.25;;
25045;SDS011;13044;49.304;12.840;2023-04-06T12:34:46;5.25;;;4.07;;
25045;SDS011;13044;49.304;12.840;2023-04-06T12:37:13;6.80;;;4.60;;
25045;SDS011;13044;49.304;12.840;2023-04-06T12:39:40;6.82;;;4.43;;
25045;SDS011;13044;49.304;12.840;2023-04-06T12:42:07;5.65;;;4.20;;
25045;SDS011;13044;49.304;12.840;2023-04-06T12:44:35;11.23;;;7.03;;
25045;SDS011;13044;49.304;12.840;2023-04-06T12:47:02;5.45;;;4.18;;
25045;SDS011;13044;49.304;12.840;2023-04-06T12:49:29;7.82;;;3.75;;
25045;SDS011;13044;49.304;12.840;2023-04-06T12:51:57;5.70;;;3.97;;
25045;SDS011;13044;49.304;12.840;2023-04-06T12:54:34;7.25;;;4.32;;
25045;SDS011;13044;49.304;12.840;2023-04-06T12:57:01;5.88;;;3.97;;
25045;SDS011;13044;49.304;12.840;2023-04-06T12:59:28;5.35;;;4.15;;
25045;SDS011;13044;49.304;12.840;2023-04-06T13:02:00;7.25;;;5.10;;
25045;SDS011;13044;49.304;12.840;2023-04-06T13:04:27;7.30;;;4.90;;
25045;SDS011;13044;49.304;12.840;2023-04-06T13:06:54;7.10;;;4.65;;
25045;SDS011;13044;49.304;12.840;2023-04-06T13:09:21;6.45;;;3.92;;
25045;SDS011;13044;49.304;12.840;2023-04-06T13:11:48;5.78;;;4.20;;
25045;SDS011;13044;49.304;12.840;2023-04-06T13:14:15;5.53;;;3.90;;
25045;SDS011;13044;49.304;12.840;2023-04-06T13:16:42;5.07;;;3.90;;
25045;SDS011;13044;49.304;12.840;2023-04-06T13:19:09;6.18;;;4.03;;
25045;SDS011;13044;49.304;12.840;2023-04-06T13:21:37;5.10;;;3.90;;
25045;SDS011;13044;49.304;12.840;2023-04-06T13:24:03;9.07;;;4.22;;
25045;SDS011;13044;49.304;12.840;2023-04-06T13:26:31;8.60;;;3.88;;
25045;SDS011;13044;49.304;12.840;2023-04-06T13:28:59;5.20;;;3.65;;
25045;SDS011;13044;49.304;12.840;2023-04-06T13:31:27;9.30;;;4.30;;
25045;SDS011;13044;49.304;12.840;2023-04-06T13:33:55;5.63;;;3.90;;
25045;SDS011;13044;49.304;12.840;2023-04-06T13:36:22;5.63;;;3.95;;
25045;SDS011;13044;49.304;12.840;2023-04-06T13:38:49;5.30;;;4.20;;
25045;SDS011;13044;49.304;12.840;2023-04-06T13:41:18;4.75;;;3.75;;
25045;SDS011;13044;49.304;12.840;2023-04-06T13:43:49;6.13;;;4.15;;
25045;SDS011;13044;49.304;12.840;2023-04-06T13:46:16;4.65;;;3.50;;
25045;SDS011;13044;49.304;12.840;2023-04-06T13:48:43;6.50;;;4.00;;
25045;SDS011;13044;49.304;12.840;2023-04-06T13:51:11;6.93;;;4.13;;
25045;SDS011;13044;49.304;12.840;2023-04-06T13:53:39;6.93;;;4.13;;
25045;SDS011;13044;49.304;12.840;2023-04-06T13:56:07;14.35;;;4.30;;
25045;SDS011;13044;49.304;12.840;2023-04-06T13:58:34;6.00;;;3.97;;
25045;SDS011;13044;49.304;12.840;2023-04-06T14:01:08;6.50;;;4.07;;
25045;SDS011;13044;49.304;12.840;2023-04-06T14:03:36;6.88;;;4.68;;
25045;SDS011;13044;49.304;12.840;2023-04-06T14:06:10;7.82;;;3.90;;
25045;SDS011;13044;49.304;12.840;2023-04-06T14:08:55;6.10;;;4.00;;
25045;SDS011;13044;49.304;12.840;2023-04-06T14:11:23;4.95;;;3.90;;
25045;SDS011;13044;49.304;12.840;2023-04-06T14:13:50;7.97;;;4.30;;
25045;SDS011;13044;49.304;12.840;2023-04-06T14:16:23;6.70;;;3.40;;
25045;SDS011;13044;49.304;12.840;2023-04-06T14:18:50;7.65;;;4.22;;
25045;SDS011;13044;49.304;12.840;2023-04-06T14:21:18;7.75;;;4.25;;
25045;SDS011;13044;49.304;12.840;2023-04-06T14:23:45;5.80;;;3.90;;
25045;SDS011;13044;49.304;12.840;2023-04-06T14:26:12;7.55;;;4.05;;
25045;SDS011;13044;49.304;12.840;2023-04-06T14:28:40;5.55;;;3.95;;
25045;SDS011;13044;49.304;12.840;2023-04-06T14:31:11;6.53;;;3.83;;
25045;SDS011;13044;49.304;12.840;2023-04-06T14:33:42;5.25;;;3.78;;
25045;SDS011;13044;49.304;12.840;2023-04-06T14:36:12;8.95;;;5.80;;
25045;SDS011;13044;49.304;12.840;2023-04-06T14:38:39;8.93;;;4.90;;
25045;SDS011;13044;49.304;12.840;2023-04-06T14:41:07;5.50;;;3.80;;
25045;SDS011;13044;49.304;12.840;2023-04-06T14:43:35;6.75;;;4.30;;
25045;SDS011;13044;49.304;12.840;2023-04-06T14:46:03;5.60;;;4.30;;
25045;SDS011;13044;49.304;12.840;2023-04-06T14:48:30;6.85;;;3.92;;
25045;SDS011;13044;49.304;12.840;2023-04-06T14:50:57;5.03;;;3.45;;
25045;SDS011;13044;49.304;12.840;2023-04-06T14:53:24;6.80;;;4.10;;
25045;SDS011;13044;49.304;12.840;2023-04-06T14:55:52;5.90;;;4.50;;
25045;SDS011;13044;49.304;12.840;2023-04-06T14:58:19;5.47;;;3.58;;
25045;SDS011;13044;49.304;12.840;2023-04-06T15:00:47;5.13;;;4.10;;